Time;durP1;ratioP1;P1;durP2;ratioP2;P2;SDS_P1;SDS_P2;PMS_P1;PMS_P2;Temp;Humidity;BMP_temperature;BMP_pressure;BME280_temperature;BME280_humidity;BME280_pressure;Samples;Min_cycle;Max_cycle;Signal;HPM_P1;HPM_P2
2022/10/26 00:01:37;;;;;;;293.23;25.40;;;9.50;82.20;;;;;;4936048;29;20226;-83
2022/10/26 00:04:04;;;;;;;316.80;26.63;;;9.60;25.00;;;;;;4936181;29;20209;-82
2022/10/26 00:06:31;;;;;;;136.77;17.43;;;9.60;1.00;;;;;;4936559;29;20196;-83
2022/10/26 00:08:58;;;;;;;118.53;15.57;;;9.60;1.00;;;;;;4936188;29;20203;-84
2022/10/26 00:11:25;;;;;;;163.80;18.63;;;9.60;1.00;;;;;;4936190;29;20257;-83
2022/10/26 00:13:53;;;;;;;157.57;18.67;;;9.60;1.00;;;;;;4936597;29;20601;-83
2022/10/26 00:16:23;;;;;;;103.47;15.93;;;9.60;1.00;;;;;;4936520;29;20192;-84
2022/10/26 00:18:50;;;;;;;139.73;18.37;;;9.60;1.00;;;;;;4936171;29;20224;-83
2022/10/26 00:21:18;;;;;;;91.67;16.80;;;9.60;1.00;;;;;;4935795;29;20570;-83
2022/10/26 00:23:45;;;;;;;86.20;15.43;;;9.60;1.00;;;;;;4935842;29;20203;-83
2022/10/26 00:26:12;;;;;;;101.50;16.10;;;9.60;1.00;;;;;;4935849;29;20705;-84
2022/10/26 00:28:40;;;;;;;121.97;15.47;;;9.60;1.00;;;;;;4935892;29;20413;-83
2022/10/26 00:31:13;;;;;;;114.53;16.23;;;9.60;1.00;;;;;;4935850;29;20262;-83
2022/10/26 00:33:40;;;;;;;113.63;15.33;;;9.60;1.00;;;;;;4935772;29;20251;-83
2022/10/26 00:36:09;;;;;;;86.53;15.40;;;9.60;1.00;;;;;;4935665;29;20188;-83
2022/10/26 00:38:36;;;;;;;122.40;16.20;;;9.50;1.00;;;;;;4935617;29;20311;-84
2022/10/26 00:41:03;;;;;;;107.80;16.13;;;9.50;1.00;;;;;;4935807;29;20208;-82
2022/10/26 00:43:38;;;;;;;128.27;17.03;;;9.50;1.00;;;;;;4935510;29;20201;-83
2022/10/26 00:46:12;;;;;;;162.43;17.43;;;9.40;1.00;;;;;;4935801;29;20188;-83
2022/10/26 00:48:43;;;;;;;163.20;18.00;;;9.40;1.00;;;;;;4935619;28;20650;-83
2022/10/26 00:51:18;;;;;;;160.27;17.90;;;9.40;1.00;;;;;;4935370;29;20726;-83
2022/10/26 00:53:45;;;;;;;166.53;18.00;;;9.40;1.00;;;;;;4935389;29;20606;-82
2022/10/26 00:56:13;;;;;;;222.00;20.03;;;9.40;1.00;;;;;;4934825;29;20651;-83
2022/10/26 00:58:40;;;;;;;166.57;17.17;;;9.30;1.00;;;;;;4935247;29;20228;-85
2022/10/26 01:01:07;;;;;;;180.43;18.87;;;9.30;1.00;;;;;;4935562;29;20279;-83
2022/10/26 01:03:36;;;;;;;174.47;17.90;;;9.30;1.00;;;;;;4935449;29;20615;-83
2022/10/26 01:06:05;;;;;;;177.27;19.70;;;9.30;1.00;;;;;;4935072;29;20739;-83
2022/10/26 01:08:33;;;;;;;141.40;16.57;;;9.30;1.00;;;;;;4934870;29;20255;-83
2022/10/26 01:11:01;;;;;;;212.93;19.80;;;9.20;1.00;;;;;;4935337;29;20206;-83
2022/10/26 01:13:31;;;;;;;189.27;17.80;;;9.30;1.00;;;;;;4935339;29;20291;-83
2022/10/26 01:16:10;;;;;;;153.13;16.93;;;9.20;1.00;;;;;;4934988;29;20207;-83
2022/10/26 01:18:48;;;;;;;150.63;18.10;;;9.20;1.00;;;;;;4934952;29;20203;-83
2022/10/26 01:21:44;;;;;;;239.90;24.23;;;9.10;1.00;;;;;;4934979;29;20671;-83
2022/10/26 01:24:27;;;;;;;125.17;19.70;;;9.10;1.00;;;;;;4935272;29;20196;-83
2022/10/26 01:27:13;;;;;;;64.97;17.50;;;9.10;1.00;;;;;;4935128;29;20321;-83
2022/10/26 01:30:09;;;;;;;193.97;26.17;;;9.00;1.00;;;;;;4935219;29;20599;-83
2022/10/26 01:32:45;;;;;;;112.33;21.70;;;9.00;1.00;;;;;;4935179;29;20188;-83
2022/10/26 01:35:16;;;;;;;36.17;14.67;;;9.00;1.00;;;;;;4935213;29;20228;-82
2022/10/26 01:37:47;;;;;;;77.27;19.30;;;8.90;1.00;;;;;;4934747;29;20609;-82
2022/10/26 01:40:21;;;;;;;46.47;14.67;;;8.90;1.00;;;;;;4935050;29;20193;-83
2022/10/26 01:42:52;;;;;;;200.30;24.77;;;8.80;1.00;;;;;;4934350;29;20675;-83
2022/10/26 01:45:20;;;;;;;106.43;20.57;;;8.80;1.00;;;;;;4934654;29;20570;-83
2022/10/26 01:47:49;;;;;;;193.43;24.00;;;8.80;1.00;;;;;;4934645;29;20259;-83
2022/10/26 01:50:18;;;;;;;247.20;25.20;;;8.80;1.00;;;;;;4935043;28;20737;-83
2022/10/26 01:52:45;;;;;;;215.63;22.83;;;8.80;1.00;;;;;;4934790;29;20197;-83
2022/10/26 01:55:47;;;;;;;312.87;24.37;;;8.80;1.00;;;;;;4934412;29;20654;-84
2022/10/26 01:58:35;;;;;;;351.83;28.83;;;8.90;1.00;;;;;;4931399;29;20239;-83
2022/10/26 02:01:15;;;;;;;150.00;19.53;;;8.90;1.00;;;;;;4934887;29;20265;-83
2022/10/26 02:03:50;;;;;;;218.13;24.43;;;9.00;1.00;;;;;;4934370;29;20187;-83
2022/10/26 02:06:25;;;;;;;103.27;17.33;;;9.00;1.00;;;;;;4934624;29;20193;-83
2022/10/26 02:09:00;;;;;;;190.23;23.30;;;9.00;99.90;;;;;;4938154;29;20248;-83
2022/10/26 02:11:37;;;;;;;168.57;22.13;;;9.00;99.90;;;;;;4938883;29;20191;-83
2022/10/26 02:14:12;;;;;;;118.97;16.30;;;9.00;99.90;;;;;;4938387;29;20285;-83
2022/10/26 02:16:52;;;;;;;127.43;16.30;;;9.00;99.90;;;;;;4938275;29;20186;-83
2022/10/26 02:19:29;;;;;;;83.63;14.97;;;8.90;99.90;;;;;;4938105;29;20207;-83
2022/10/26 02:22:01;;;;;;;80.20;13.70;;;8.90;99.90;;;;;;4938419;29;20715;-84
2022/10/26 02:24:30;;;;;;;82.47;15.90;;;8.80;99.90;;;;;;4938035;29;20669;-83
2022/10/26 02:27:00;;;;;;;138.67;19.87;;;8.80;99.90;;;;;;4938243;29;20210;-83
2022/10/26 02:29:28;;;;;;;153.63;20.37;;;8.80;99.90;;;;;;4938497;29;20254;-83
2022/10/26 02:31:57;;;;;;;106.30;17.30;;;8.70;99.90;;;;;;4937976;29;20203;-82
2022/10/26 02:34:28;;;;;;;50.57;13.97;;;8.70;1.00;;;;;;4937832;29;20297;-83
2022/10/26 02:36:58;;;;;;;38.40;12.97;;;8.60;1.00;;;;;;4937934;29;20637;-83
2022/10/26 02:39:28;;;;;;;43.67;13.13;;;8.60;1.00;;;;;;4937942;29;20219;-83
2022/10/26 02:41:56;;;;;;;45.40;12.93;;;8.50;1.00;;;;;;4937539;29;20606;-85
2022/10/26 02:44:26;;;;;;;32.47;12.73;;;8.50;1.00;;;;;;4937960;29;20199;-83
2022/10/26 02:46:54;;;;;;;32.93;12.30;;;8.50;1.00;;;;;;4937757;29;20297;-83
2022/10/26 02:49:23;;;;;;;47.70;12.40;;;8.40;16.90;;;;;;4937960;29;20254;-83
2022/10/26 02:51:53;;;;;;;39.67;12.57;;;8.40;99.90;;;;;;4937612;29;20252;-84
2022/10/26 02:54:26;;;;;;;32.67;11.67;;;8.40;99.90;;;;;;4938158;29;20257;-85
2022/10/26 02:56:56;;;;;;;57.80;15.67;;;8.30;99.90;;;;;;4937873;29;20189;-83
2022/10/26 02:59:27;;;;;;;41.03;14.30;;;8.30;99.90;;;;;;4937670;29;20241;-83
2022/10/26 03:01:55;;;;;;;51.27;14.57;;;8.30;99.90;;;;;;4937788;29;20217;-83
2022/10/26 03:04:30;;;;;;;90.50;18.97;;;8.30;99.90;;;;;;4937907;29;20197;-83
2022/10/26 03:06:56;;;;;;;40.40;14.53;;;8.30;99.90;;;;;;4937643;29;20191;-83
2022/10/26 03:09:24;;;;;;;69.23;15.83;;;8.30;99.90;;;;;;4937540;29;20661;-83
2022/10/26 03:11:51;;;;;;;51.97;13.57;;;8.30;99.90;;;;;;4937157;29;20604;-84
2022/10/26 03:14:18;;;;;;;33.90;12.70;;;8.20;99.90;;;;;;4937393;29;20193;-83
2022/10/26 03:16:45;;;;;;;59.73;13.73;;;8.30;99.90;;;;;;4937039;29;20268;-84
2022/10/26 03:19:12;;;;;;;68.67;15.43;;;8.30;99.90;;;;;;4936902;29;20282;-83
2022/10/26 03:21:41;;;;;;;79.57;13.43;;;8.30;1.00;;;;;;4937502;29;20249;-83
2022/10/26 03:24:08;;;;;;;85.67;13.33;;;8.30;1.00;;;;;;4937508;29;20595;-82
2022/10/26 03:26:35;;;;;;;122.77;15.03;;;8.20;1.00;;;;;;4937569;29;20202;-84
2022/10/26 03:29:03;;;;;;;134.97;15.67;;;8.20;1.00;;;;;;4937410;29;20665;-81
2022/10/26 03:31:30;;;;;;;122.70;15.07;;;8.20;1.00;;;;;;4936265;29;20242;-83
2022/10/26 03:33:57;;;;;;;125.60;14.63;;;8.30;1.00;;;;;;4937191;29;20193;-84
2022/10/26 03:36:24;;;;;;;95.57;14.33;;;8.30;1.00;;;;;;4936946;29;20194;-83
2022/10/26 03:38:52;;;;;;;98.27;14.73;;;8.20;1.00;;;;;;4936937;29;20612;-83
2022/10/26 03:41:19;;;;;;;124.60;18.73;;;8.20;1.00;;;;;;4923659;29;20263;-82
2022/10/26 03:43:47;;;;;;;128.97;28.97;;;8.20;1.00;;;;;;4918365;29;20198;-83
2022/10/26 03:46:14;;;;;;;214.73;35.17;;;8.20;99.90;;;;;;4917886;29;20198;-83
2022/10/26 03:48:41;;;;;;;200.10;33.23;;;8.10;99.90;;;;;;4918226;29;20632;-82
2022/10/26 03:51:08;;;;;;;73.20;12.47;;;8.10;99.90;;;;;;4932305;29;20189;-82
2022/10/26 03:53:35;;;;;;;79.63;10.90;;;8.10;99.90;;;;;;4937044;29;20199;-83
2022/10/26 03:56:04;;;;;;;144.20;17.40;;;8.10;99.90;;;;;;4936890;29;20190;-85
2022/10/26 03:58:31;;;;;;;117.07;15.60;;;8.00;99.90;;;;;;4936510;29;20217;-82
2022/10/26 04:00:58;;;;;;;87.77;12.67;;;8.10;1.00;;;;;;4936725;29;20193;-84
2022/10/26 04:03:25;;;;;;;117.73;14.00;;;8.10;99.90;;;;;;4935881;29;20200;-82
2022/10/26 04:05:52;;;;;;;137.83;13.63;;;8.10;99.90;;;;;;4936989;29;20264;-82
2022/10/26 04:08:19;;;;;;;160.50;15.37;;;8.10;99.90;;;;;;4936169;29;20663;-82
2022/10/26 04:10:47;;;;;;;95.90;10.80;;;8.10;99.90;;;;;;4936481;29;20249;-83
2022/10/26 04:13:15;;;;;;;157.60;13.20;;;8.10;99.90;;;;;;4936533;29;20202;-82
2022/10/26 04:15:42;;;;;;;135.13;11.80;;;8.10;63.50;;;;;;4936411;29;20258;-82
2022/10/26 04:18:11;;;;;;;125.73;11.63;;;8.10;1.00;;;;;;4936199;29;20218;-82
2022/10/26 04:20:41;;;;;;;163.00;13.20;;;8.10;1.00;;;;;;4936120;29;20566;-82
2022/10/26 04:23:10;;;;;;;119.27;13.00;;;8.10;6.90;;;;;;4936314;29;20652;-82
2022/10/26 04:25:38;;;;;;;84.33;14.37;;;8.00;1.00;;;;;;4936426;29;20197;-82
2022/10/26 04:28:06;;;;;;;70.43;11.60;;;8.00;1.00;;;;;;4936575;29;20198;-82
2022/10/26 04:30:35;;;;;;;59.87;12.27;;;7.90;1.00;;;;;;4935402;29;20694;-83
2022/10/26 04:33:02;;;;;;;67.17;13.40;;;7.90;1.00;;;;;;4936151;29;20280;-82
2022/10/26 04:35:30;;;;;;;65.97;12.57;;;7.80;1.00;;;;;;4935974;29;20232;-83
2022/10/26 04:38:00;;;;;;;79.40;12.53;;;7.80;20.50;;;;;;4935659;29;20198;-82
2022/10/26 04:40:27;;;;;;;88.17;14.63;;;7.70;99.90;;;;;;4936072;29;20261;-83
2022/10/26 04:42:54;;;;;;;80.80;12.63;;;7.70;99.90;;;;;;4936129;29;20209;-82
2022/10/26 04:45:22;;;;;;;77.50;15.30;;;7.70;99.90;;;;;;4935635;29;20204;-82
2022/10/26 04:47:59;;;;;;;69.07;12.37;;;7.70;99.90;;;;;;4935760;29;20652;-82
2022/10/26 04:50:26;;;;;;;71.80;13.37;;;7.60;99.90;;;;;;4935495;29;20281;-82
2022/10/26 04:52:53;;;;;;;84.43;12.60;;;7.60;99.90;;;;;;4935971;29;20249;-82
2022/10/26 04:55:20;;;;;;;63.87;12.00;;;7.60;99.90;;;;;;4935568;29;20244;-82
2022/10/26 04:57:47;;;;;;;55.23;11.47;;;7.60;99.90;;;;;;4935587;29;20652;-83
2022/10/26 05:00:15;;;;;;;56.20;11.77;;;7.60;99.90;;;;;;4935246;29;20761;-83
2022/10/26 05:02:42;;;;;;;61.60;11.70;;;7.50;99.90;;;;;;4934558;28;20248;-83
2022/10/26 05:05:10;;;;;;;39.53;11.53;;;7.50;99.90;;;;;;4934865;29;20203;-84
2022/10/26 05:07:37;;;;;;;31.97;10.47;;;7.50;99.90;;;;;;4935851;29;20248;-84
2022/10/26 05:10:05;;;;;;;41.50;11.37;;;7.40;99.90;;;;;;4934854;29;20202;-83
2022/10/26 05:12:32;;;;;;;42.90;11.97;;;7.40;1.00;;;;;;4935697;29;20199;-83
2022/10/26 05:14:59;;;;;;;40.13;10.47;;;7.40;1.00;;;;;;4935312;29;20267;-82
2022/10/26 05:17:26;;;;;;;61.50;12.17;;;7.40;1.00;;;;;;4935241;29;20202;-82
2022/10/26 05:19:56;;;;;;;48.17;11.53;;;7.40;1.00;;;;;;4935036;29;20228;-83
2022/10/26 05:22:25;;;;;;;60.83;12.83;;;7.40;1.00;;;;;;4935437;29;20276;-82
2022/10/26 05:24:52;;;;;;;86.67;13.77;;;7.40;1.00;;;;;;4935169;29;20650;-83
2022/10/26 05:27:19;;;;;;;123.93;15.40;;;7.40;1.00;;;;;;4935489;29;20333;-83
2022/10/26 05:29:46;;;;;;;76.37;14.37;;;7.50;1.00;;;;;;4935414;29;20205;-83
2022/10/26 05:32:13;;;;;;;75.80;12.57;;;7.50;1.00;;;;;;4935390;29;20206;-83
2022/10/26 05:34:40;;;;;;;69.33;12.87;;;7.50;1.00;;;;;;4935344;29;20273;-83
2022/10/26 05:37:07;;;;;;;64.83;12.40;;;7.50;1.00;;;;;;4935025;29;20604;-83
2022/10/26 05:39:35;;;;;;;63.57;11.73;;;7.50;1.00;;;;;;4935302;29;20216;-85
2022/10/26 05:42:02;;;;;;;84.70;16.13;;;7.50;1.00;;;;;;4934880;29;20678;-83
2022/10/26 05:44:29;;;;;;;89.47;16.90;;;7.50;1.00;;;;;;4935304;29;20197;-83
2022/10/26 05:46:56;;;;;;;78.80;17.07;;;7.50;1.00;;;;;;4934903;29;20244;-83
2022/10/26 05:49:23;;;;;;;76.90;17.17;;;7.60;99.90;;;;;;4934971;29;20608;-83
2022/10/26 05:51:50;;;;;;;77.67;16.40;;;7.50;99.90;;;;;;4935196;29;20259;-83
2022/10/26 05:54:17;;;;;;;88.33;18.90;;;7.60;99.90;;;;;;4935183;29;20248;-83
2022/10/26 05:56:46;;;;;;;66.60;15.57;;;7.60;99.90;;;;;;4934865;29;20244;-84
2022/10/26 05:59:15;;;;;;;53.00;11.83;;;7.60;99.90;;;;;;4935311;29;20224;-84
2022/10/26 06:01:56;;;;;;;54.67;11.60;;;7.50;99.90;;;;;;4935074;29;20840;-83
2022/10/26 06:04:37;;;;;;;69.83;12.53;;;7.50;99.90;;;;;;4934788;29;20196;-83
2022/10/26 06:07:10;;;;;;;81.43;14.90;;;7.50;99.90;;;;;;4934799;29;20644;-86
2022/10/26 06:09:38;;;;;;;44.03;12.93;;;7.40;99.90;;;;;;4935107;29;20240;-83
2022/10/26 06:12:08;;;;;;;45.33;13.00;;;7.50;99.90;;;;;;4935061;29;20203;-84
2022/10/26 06:14:36;;;;;;;54.10;15.20;;;7.50;99.90;;;;;;4934981;29;20304;-83
2022/10/26 06:17:15;;;;;;;47.07;13.97;;;7.50;99.90;;;;;;4935020;29;20201;-83
2022/10/26 06:20:02;;;;;;;32.33;12.30;;;7.50;99.90;;;;;;4935009;29;20548;-84
2022/10/26 06:22:42;;;;;;;33.10;13.50;;;7.50;99.90;;;;;;4935012;29;20189;-83
2022/10/26 06:25:18;;;;;;;37.83;16.90;;;7.50;99.90;;;;;;4934624;29;20699;-83
2022/10/26 06:27:56;;;;;;;32.73;16.80;;;7.50;99.90;;;;;;4953559;28;20176;-86
2022/10/26 06:30:23;;;;;;;26.50;16.03;;;7.50;99.90;;;;;;4960176;28;20181;-83
2022/10/26 06:32:55;;;;;;;24.30;13.93;;;7.60;99.90;;;;;;4959870;28;20187;-83
2022/10/26 06:35:32;;;;;;;17.30;11.70;;;7.60;99.90;;;;;;4960138;28;20265;-87
2022/10/26 06:38:05;;;;;;;27.10;16.60;;;7.70;1.00;;;;;;4960096;28;20232;-88
2022/10/26 06:40:36;;;;;;;34.70;20.67;;;7.70;1.00;;;;;;4960023;28;20229;-85
2022/10/26 06:43:12;;;;;;;37.70;21.97;;;7.80;1.00;;;;;;4960010;28;20206;-85
2022/10/26 06:45:49;;;;;;;42.27;20.67;;;7.90;1.00;;;;;;4960015;28;20209;-83
2022/10/26 06:48:20;;;;;;;30.37;18.77;;;8.00;1.00;;;;;;4955641;28;20229;-83
2022/10/26 06:50:52;;;;;;;29.37;17.60;;;8.00;1.00;;;;;;4934625;29;20200;-86
2022/10/26 06:53:25;;;;;;;24.20;14.40;;;8.10;99.90;;;;;;4935518;29;20182;-85
2022/10/26 06:55:53;;;;;;;30.77;17.07;;;8.20;99.90;;;;;;4938208;29;20206;-83
2022/10/26 06:58:24;;;;;;;33.30;15.40;;;8.30;99.90;;;;;;4937838;29;20533;-83
2022/10/26 07:00:53;;;;;;;55.90;16.87;;;8.40;99.90;;;;;;4938059;29;20215;-82
2022/10/26 07:03:21;;;;;;;105.37;16.87;;;8.50;1.00;;;;;;4938018;29;20568;-83
2022/10/26 07:05:48;;;;;;;125.77;17.13;;;8.70;99.90;;;;;;4938169;29;20204;-83
2022/10/26 07:08:15;;;;;;;85.50;13.03;;;8.90;99.90;;;;;;4937864;29;20194;-84
2022/10/26 07:10:42;;;;;;;63.33;12.53;;;9.00;99.90;;;;;;4937891;29;20250;-86
2022/10/26 07:13:10;;;;;;;86.67;13.73;;;9.10;30.20;;;;;;4937837;29;20201;-84
2022/10/26 07:15:41;;;;;;;104.00;12.40;;;9.20;1.00;;;;;;4937789;29;20261;-83
2022/10/26 07:18:09;;;;;;;119.80;11.37;;;9.40;1.00;;;;;;4937834;29;20185;-83
2022/10/26 07:20:37;;;;;;;88.13;10.10;;;9.50;1.00;;;;;;4937267;29;20232;-83
2022/10/26 07:23:06;;;;;;;75.53;10.63;;;9.50;1.00;;;;;;4937432;29;20294;-83
2022/10/26 07:25:37;;;;;;;120.93;17.13;;;9.60;1.00;;;;;;4937565;29;20201;-84
2022/10/26 07:28:06;;;;;;;99.87;20.37;;;9.70;1.00;;;;;;4937468;29;20353;-84
2022/10/26 07:30:33;;;;;;;82.83;19.50;;;9.70;99.90;;;;;;4937188;29;20207;-83
2022/10/26 07:33:03;;;;;;;87.80;23.00;;;9.80;99.90;;;;;;4937480;29;20212;-85
2022/10/26 07:35:30;;;;;;;112.77;16.47;;;9.80;99.90;;;;;;4936929;29;20741;-83
2022/10/26 07:37:58;;;;;;;106.17;17.00;;;9.80;99.90;;;;;;4937439;29;20242;-83
2022/10/26 07:40:25;;;;;;;106.97;16.87;;;9.90;99.90;;;;;;4937240;29;20221;-83
2022/10/26 07:43:02;;;;;;;87.40;15.57;;;10.00;99.90;;;;;;4948662;28;20187;-85
2022/10/26 07:45:32;;;;;;;84.77;16.90;;;10.10;75.10;;;;;;4962373;28;20172;-86
2022/10/26 07:48:08;;;;;;;78.67;23.43;;;10.10;1.00;;;;;;4962483;28;20196;-88
2022/10/26 07:50:40;;;;;;;108.23;20.77;;;10.20;1.00;;;;;;4962387;28;20183;-84
2022/10/26 07:53:11;;;;;;;106.47;24.03;;;10.10;1.00;;;;;;4962352;28;20196;-85
2022/10/26 07:55:41;;;;;;;97.77;22.53;;;10.20;1.00;;;;;;4962010;28;20192;-83
2022/10/26 07:58:09;;;;;;;96.30;24.93;;;10.30;1.00;;;;;;4949326;28;20272;-84
2022/10/26 08:00:36;;;;;;;83.60;20.70;;;10.30;1.00;;;;;;4936578;29;20623;-83
2022/10/26 08:03:03;;;;;;;99.00;21.07;;;10.40;1.00;;;;;;4936706;29;20194;-83
2022/10/26 08:05:37;;;;;;;104.80;20.73;;;10.40;1.00;;;;;;4941176;29;20213;-86
2022/10/26 08:08:05;;;;;;;103.63;19.47;;;10.50;1.00;;;;;;4938087;28;20200;-84
2022/10/26 08:10:33;;;;;;;113.37;19.30;;;10.50;1.00;;;;;;4936871;29;20242;-81
2022/10/26 08:13:00;;;;;;;134.90;21.60;;;10.60;99.90;;;;;;4936355;29;20204;-86
2022/10/26 08:15:27;;;;;;;90.10;19.13;;;10.80;1.00;;;;;;4936782;29;20202;-83
2022/10/26 08:17:54;;;;;;;79.60;19.03;;;10.90;1.00;;;;;;4936732;29;20202;-83
2022/10/26 08:20:21;;;;;;;97.93;21.30;;;11.00;1.00;;;;;;4936428;29;20229;-83
2022/10/26 08:22:48;;;;;;;91.43;23.07;;;11.00;99.90;;;;;;4936768;29;20213;-87
2022/10/26 08:25:16;;;;;;;134.83;31.83;;;11.10;99.90;;;;;;4936166;29;20201;-83
2022/10/26 08:27:43;;;;;;;110.23;26.77;;;11.10;99.90;;;;;;4936147;29;20197;-83
2022/10/26 08:30:11;;;;;;;137.67;34.10;;;11.20;99.90;;;;;;4936386;29;20622;-83
2022/10/26 08:32:38;;;;;;;119.27;28.57;;;11.30;99.90;;;;;;4936371;29;20200;-83
2022/10/26 08:35:06;;;;;;;86.43;27.37;;;11.30;99.90;;;;;;4936287;29;20232;-85
2022/10/26 08:37:33;;;;;;;159.50;46.20;;;11.40;99.90;;;;;;4936280;29;20197;-81
2022/10/26 08:40:00;;;;;;;85.07;26.97;;;11.50;1.00;;;;;;4936179;29;20626;-83
2022/10/26 08:42:33;;;;;;;96.27;26.80;;;11.70;99.90;;;;;;4936244;29;20203;-82
2022/10/26 08:45:04;;;;;;;96.37;26.13;;;11.80;1.00;;;;;;4936241;29;20192;-83
2022/10/26 08:47:35;;;;;;;75.53;22.07;;;11.90;1.00;;;;;;4935834;29;20181;-85
2022/10/26 08:50:09;;;;;;;68.13;17.17;;;12.00;1.00;;;;;;4936101;29;20619;-85
2022/10/26 08:52:41;;;;;;;49.93;16.93;;;12.10;1.00;;;;;;4936131;29;20193;-83
2022/10/26 08:55:16;;;;;;;50.50;15.97;;;12.20;99.90;;;;;;4935706;29;20200;-83
2022/10/26 08:57:48;;;;;;;41.70;15.67;;;12.40;1.00;;;;;;4935689;29;20640;-83
2022/10/26 09:00:18;;;;;;;49.10;15.03;;;12.60;99.90;;;;;;4935878;29;20641;-84
2022/10/26 09:02:49;;;;;;;36.27;15.47;;;12.80;1.00;;;;;;4935533;29;20321;-83
2022/10/26 09:05:18;;;;;;;100.63;23.23;;;13.00;1.00;;;;;;4935800;29;20193;-83
2022/10/26 09:07:55;;;;;;;139.93;26.70;;;13.10;13.40;;;;;;4935727;29;20202;-84
2022/10/26 09:10:39;;;;;;;131.83;32.17;;;13.30;1.00;;;;;;4936038;29;20209;-83
2022/10/26 09:13:19;;;;;;;90.53;31.37;;;13.40;1.00;;;;;;4935134;28;20253;-83
2022/10/26 09:15:57;;;;;;;92.70;32.60;;;13.40;99.90;;;;;;4935407;29;20188;-83
2022/10/26 09:18:35;;;;;;;107.00;37.20;;;13.40;99.90;;;;;;4935892;29;20223;-82
2022/10/26 09:21:12;;;;;;;155.20;41.83;;;13.50;99.90;;;;;;4935630;29;20292;-83
2022/10/26 09:23:55;;;;;;;272.83;43.20;;;13.50;28.30;;;;;;4935639;29;20605;-84
2022/10/26 09:26:30;;;;;;;158.90;32.80;;;13.60;1.00;;;;;;4935832;29;20576;-83
2022/10/26 09:29:03;;;;;;;85.53;16.23;;;13.70;1.00;;;;;;4935771;29;20275;-83
2022/10/26 09:31:32;;;;;;;63.43;14.80;;;13.70;1.00;;;;;;4935565;29;20191;-84
2022/10/26 09:34:02;;;;;;;52.07;13.87;;;13.80;1.00;;;;;;4934921;29;20204;-83
2022/10/26 09:36:29;;;;;;;36.83;12.37;;;13.80;1.00;;;;;;4935136;29;20200;-83
2022/10/26 09:39:01;;;;;;;40.07;15.17;;;13.80;1.00;;;;;;4935276;29;20200;-85
2022/10/26 09:41:37;;;;;;;45.67;15.27;;;13.80;1.00;;;;;;4935230;29;20267;-83
2022/10/26 09:44:11;;;;;;;41.73;14.60;;;14.00;1.00;;;;;;4935389;29;20198;-83
2022/10/26 09:46:49;;;;;;;42.53;14.67;;;14.00;99.90;;;;;;4935405;29;20190;-86
2022/10/26 09:49:19;;;;;;;45.67;12.07;;;13.90;1.00;;;;;;4934978;29;20248;-83
2022/10/26 09:51:47;;;;;;;37.80;13.20;;;13.90;99.90;;;;;;4935191;29;20212;-83
2022/10/26 09:54:16;;;;;;;51.23;29.83;;;13.90;1.00;;;;;;4935233;29;20203;-86
2022/10/26 09:56:44;;;;;;;36.67;17.97;;;13.90;1.00;;;;;;4935326;29;20284;-85
2022/10/26 09:59:14;;;;;;;29.23;13.67;;;13.90;1.00;;;;;;4934812;29;20207;-82
2022/10/26 10:01:41;;;;;;;25.40;13.73;;;13.90;99.90;;;;;;4935037;29;20217;-82
2022/10/26 10:04:21;;;;;;;24.17;14.20;;;13.90;99.90;;;;;;4935035;29;20230;-83
2022/10/26 10:06:49;;;;;;;22.00;14.33;;;14.00;1.00;;;;;;4935198;29;20183;-82
2022/10/26 10:09:19;;;;;;;21.97;15.57;;;14.10;1.00;;;;;;4935044;29;20633;-83
2022/10/26 10:11:53;;;;;;;25.90;18.50;;;14.20;99.90;;;;;;4935120;28;20208;-83
2022/10/26 10:14:23;;;;;;;25.53;18.03;;;14.20;99.90;;;;;;4935336;29;20211;-82
2022/10/26 10:16:53;;;;;;;26.33;19.47;;;14.20;99.90;;;;;;4934849;29;20181;-82
2022/10/26 10:19:26;;;;;;;31.37;20.23;;;14.10;1.00;;;;;;4934715;29;20567;-85
2022/10/26 10:21:56;;;;;;;29.60;20.37;;;14.10;1.00;;;;;;4934971;29;20263;-83
2022/10/26 10:24:26;;;;;;;29.63;18.63;;;14.10;1.00;;;;;;4934989;29;20193;-86
2022/10/26 10:26:58;;;;;;;31.67;21.50;;;14.20;99.90;;;;;;4934571;29;20684;-82
2022/10/26 10:29:27;;;;;;;38.60;23.07;;;14.20;1.00;;;;;;4937310;29;20204;-82
2022/10/26 10:31:59;;;;;;;32.60;20.27;;;14.30;1.00;;;;;;4938575;29;20209;-84
2022/10/26 10:34:27;;;;;;;35.30;19.50;;;14.30;1.00;;;;;;4938385;29;20232;-83
2022/10/26 10:36:54;;;;;;;27.70;18.57;;;14.30;1.00;;;;;;4938173;29;20208;-85
2022/10/26 10:39:37;;;;;;;27.53;18.50;;;14.40;1.00;;;;;;4938409;29;20205;-85
2022/10/26 10:42:07;;;;;;;24.83;16.57;;;14.40;99.90;;;;;;4938426;29;20279;-82
2022/10/26 10:44:36;;;;;;;25.10;17.90;;;14.50;99.90;;;;;;4938224;29;20290;-85
2022/10/26 10:47:05;;;;;;;30.63;18.70;;;14.60;99.90;;;;;;4938600;29;20204;-83
2022/10/26 10:49:32;;;;;;;29.50;18.42;;;14.70;90.50;;;;;;4938499;29;20206;-83
2022/10/26 10:52:00;;;;;;;23.95;17.83;;;14.70;18.40;;;;;;4938490;29;20235;-84
2022/10/26 10:54:31;;;;;;;22.25;16.65;;;14.80;14.70;;;;;;4938182;29;20204;-83
2022/10/26 10:57:08;;;;;;;24.55;16.17;;;14.90;99.90;;;;;;4938088;29;20286;-83
2022/10/26 10:59:50;;;;;;;27.40;17.75;;;14.90;99.90;;;;;;4937843;29;20192;-85
2022/10/26 11:02:47;;;;;;;20.95;16.50;;;15.00;99.90;;;;;;4938088;29;20213;-85
2022/10/26 11:05:24;;;;;;;24.13;18.25;;;15.10;1.00;;;;;;4938002;29;20222;-84
2022/10/26 11:07:55;;;;;;;25.40;17.10;;;15.10;1.00;;;;;;4937712;29;20655;-84
2022/10/26 11:10:27;;;;;;;29.52;21.15;;;15.20;99.90;;;;;;4937932;29;20274;-85
2022/10/26 11:12:59;;;;;;;22.88;17.90;;;15.20;1.00;;;;;;4937616;29;20192;-85
2022/10/26 11:15:31;;;;;;;21.08;14.43;;;15.30;99.90;;;;;;4937575;29;20191;-82
2022/10/26 11:18:06;;;;;;;20.30;14.00;;;15.30;99.90;;;;;;4937490;29;20191;-81
2022/10/26 11:20:36;;;;;;;21.90;14.73;;;15.30;99.90;;;;;;4938264;29;20188;-83
2022/10/26 11:23:10;;;;;;;18.45;13.65;;;15.40;1.00;;;;;;4937635;29;20195;-82
2022/10/26 11:25:44;;;;;;;17.67;13.57;;;15.40;1.00;;;;;;4937847;29;20194;-83
2022/10/26 11:28:17;;;;;;;21.88;14.15;;;15.50;99.90;;;;;;4937673;29;20185;-82
2022/10/26 11:30:50;;;;;;;18.80;12.98;;;15.60;1.00;;;;;;4937227;29;20188;-85
2022/10/26 11:33:23;;;;;;;20.90;13.35;;;15.50;1.00;;;;;;4937277;29;20197;-82
2022/10/26 11:35:56;;;;;;;16.15;12.45;;;15.50;1.00;;;;;;4937371;29;20235;-85
2022/10/26 11:38:30;;;;;;;16.42;12.80;;;15.60;1.00;;;;;;4937521;29;20189;-83
2022/10/26 11:41:03;;;;;;;20.35;13.43;;;15.60;1.00;;;;;;4937036;29;20313;-83
2022/10/26 11:43:37;;;;;;;25.48;14.25;;;15.70;99.90;;;;;;4937351;29;20186;-82
2022/10/26 11:46:10;;;;;;;22.20;13.65;;;15.70;99.90;;;;;;4937268;29;20189;-82
2022/10/26 11:48:44;;;;;;;17.67;12.65;;;15.80;1.00;;;;;;4937348;29;20180;-85
2022/10/26 11:51:18;;;;;;;25.33;14.15;;;15.80;1.00;;;;;;4937258;29;20192;-83
2022/10/26 11:53:47;;;;;;;20.65;12.43;;;15.90;1.00;;;;;;4937111;29;20195;-83
2022/10/26 11:56:22;;;;;;;13.27;10.35;;;15.90;1.00;;;;;;4936786;29;20590;-82
2022/10/26 11:58:50;;;;;;;14.82;11.30;;;16.00;99.90;;;;;;4936789;29;20196;-84
2022/10/26 12:01:19;;;;;;;13.95;10.68;;;16.00;99.90;;;;;;4937017;29;20228;-81
2022/10/26 12:03:49;;;;;;;13.85;10.48;;;16.10;99.90;;;;;;4936670;29;20664;-83
2022/10/26 12:06:20;;;;;;;18.23;10.60;;;16.10;99.90;;;;;;4936595;29;20200;-84
2022/10/26 12:08:54;;;;;;;12.80;8.40;;;16.20;1.00;;;;;;4936632;29;20185;-83
2022/10/26 12:11:34;;;;;;;14.15;9.90;;;16.20;1.00;;;;;;4936604;29;20207;-83
2022/10/26 12:14:09;;;;;;;13.93;9.68;;;16.20;99.90;;;;;;4936798;29;20289;-84
2022/10/26 12:16:46;;;;;;;15.57;9.32;;;16.20;58.10;;;;;;4937090;29;20185;-82
2022/10/26 12:19:21;;;;;;;11.45;9.27;;;16.20;1.00;;;;;;4936431;29;20185;-82
2022/10/26 12:21:50;;;;;;;19.00;8.65;;;16.20;94.30;;;;;;4936590;29;20212;-82
2022/10/26 12:24:29;;;;;;;13.57;8.95;;;16.20;1.00;;;;;;4936579;29;20224;-83
2022/10/26 12:27:00;;;;;;;17.60;8.80;;;16.20;1.00;;;;;;4954104;29;20193;-84
2022/10/26 12:29:39;;;;;;;10.85;8.20;;;16.20;1.00;;;;;;4943811;28;20588;-86
2022/10/26 12:32:47;;;;;;;11.27;8.00;;;16.20;1.00;;;;;;4936429;29;20270;-85
2022/10/26 12:35:43;;;;;;;14.90;8.82;;;16.20;1.00;;;;;;4936227;29;20260;-83
2022/10/26 12:38:48;;;;;;;11.60;8.38;;;16.20;1.00;;;;;;4935748;28;20204;-83
2022/10/26 12:41:20;;;;;;;12.43;8.05;;;16.30;99.90;;;;;;4936157;29;20650;-84
2022/10/26 12:43:48;;;;;;;14.77;7.82;;;16.30;1.00;;;;;;4936285;29;20559;-82
2022/10/26 12:46:43;;;;;;;17.13;8.27;;;16.30;99.90;;;;;;4935810;29;20203;-83
2022/10/26 12:49:58;;;;;;;10.20;7.43;;;16.30;99.90;;;;;;4936456;29;20225;-84
2022/10/26 12:52:42;;;;;;;10.73;6.95;;;16.30;99.90;;;;;;4935389;29;20197;-83
2022/10/26 12:55:30;;;;;;;8.80;6.47;;;16.30;99.90;;;;;;4936411;29;20632;-82
2022/10/26 12:58:13;;;;;;;9.55;7.05;;;16.20;99.90;;;;;;4935739;29;20196;-83